createdAt,value
2023-04-24T00:01:13.976Z,13.87
2023-04-24T00:03:42.297Z,13.84
2023-04-24T00:06:10.538Z,13.80
2023-04-24T00:08:38.643Z,13.79
2023-04-24T00:11:06.639Z,13.77
2023-04-24T00:13:36.081Z,13.75
2023-04-24T00:16:04.208Z,13.76
2023-04-24T00:18:32.131Z,13.75
2023-04-24T00:21:00.443Z,13.75
2023-04-24T00:23:28.487Z,13.72
2023-04-24T00:25:56.454Z,13.64
2023-04-24T00:28:24.457Z,13.60
2023-04-24T00:30:53.970Z,13.57
2023-04-24T00:33:22.209Z,13.57
2023-04-24T00:35:50.136Z,13.54
2023-04-24T00:38:18.076Z,13.52
2023-04-24T00:40:46.089Z,13.48
2023-04-24T00:43:14.182Z,13.43
2023-04-24T00:45:42.097Z,13.39
2023-04-24T00:48:11.477Z,13.32
2023-04-24T00:50:40.032Z,13.28
2023-04-24T00:53:08.241Z,13.26
2023-04-24T00:55:38.354Z,13.23
2023-04-24T00:58:06.769Z,13.21
2023-04-24T01:00:34.677Z,13.17
2023-04-24T01:03:03.193Z,13.12
2023-04-24T01:05:32.724Z,13.09
2023-04-24T01:08:00.908Z,13.04
2023-04-24T01:10:29.052Z,13.00
2023-04-24T01:12:57.016Z,12.95
2023-04-24T01:15:24.927Z,12.89
2023-04-24T01:17:52.987Z,12.88
2023-04-24T01:20:22.887Z,12.87
2023-04-24T01:22:52.272Z,12.87
2023-04-24T01:25:20.265Z,12.89
2023-04-24T01:27:48.344Z,12.93
2023-04-24T01:30:16.592Z,12.95
2023-04-24T01:32:45.918Z,13.00
2023-04-24T01:35:13.876Z,13.06
2023-04-24T01:37:41.975Z,13.10
2023-04-24T01:40:11.885Z,13.13
2023-04-24T01:42:39.992Z,13.13
2023-04-24T01:45:09.077Z,13.12
2023-04-24T01:47:37.245Z,13.12
2023-04-24T01:50:05.825Z,13.13
2023-04-24T01:52:34.411Z,13.11
2023-04-24T01:55:02.468Z,13.08
2023-04-24T01:57:32.500Z,13.04
2023-04-24T02:00:00.588Z,13.00
2023-04-24T02:02:31.068Z,12.96
2023-04-24T02:04:59.501Z,12.93
2023-04-24T02:07:27.544Z,12.93
2023-04-24T02:09:56.469Z,12.93
2023-04-24T02:12:24.758Z,12.95
2023-04-24T02:14:54.616Z,12.99
2023-04-24T02:17:22.742Z,13.03
2023-04-24T02:19:50.968Z,13.04
2023-04-24T02:22:18.926Z,13.04
2023-04-24T02:24:47.265Z,13.02
2023-04-24T02:27:17.194Z,13.00
2023-04-24T02:29:46.010Z,12.95
2023-04-24T02:32:16.718Z,12.94
2023-04-24T02:34:45.095Z,12.88
2023-04-24T02:37:14.094Z,12.85
2023-04-24T02:39:42.442Z,12.86
2023-04-24T02:42:10.863Z,12.86
2023-04-24T02:44:38.858Z,12.89
2023-04-24T02:47:06.785Z,12.90
2023-04-24T02:49:36.143Z,12.89
2023-04-24T02:52:04.169Z,12.89
2023-04-24T02:54:32.220Z,12.87
2023-04-24T02:57:01.737Z,12.80
2023-04-24T02:59:29.969Z,12.76
2023-04-24T03:01:59.124Z,12.74
2023-04-24T03:04:27.282Z,12.71
2023-04-24T03:06:57.375Z,12.67
2023-04-24T03:09:25.555Z,12.62
2023-04-24T03:11:53.489Z,12.58
2023-04-24T03:14:21.508Z,12.52
2023-04-24T03:16:49.966Z,12.43
2023-04-24T03:19:18.028Z,12.38
2023-04-24T03:22:01.107Z,12.34
2023-04-24T03:24:29.499Z,12.28
2023-04-24T03:26:58.230Z,12.23
2023-04-24T03:29:54.916Z,12.18
2023-04-24T03:32:24.339Z,12.17
2023-04-24T03:34:53.670Z,12.15
2023-04-24T03:37:23.630Z,12.15
2023-04-24T03:40:02.287Z,12.09
2023-04-24T03:42:30.763Z,12.10
2023-04-24T03:44:58.697Z,12.11
2023-04-24T03:47:32.175Z,12.13
2023-04-24T03:50:03.662Z,12.17
2023-04-24T03:52:34.038Z,12.19
2023-04-24T03:55:02.371Z,12.21
2023-04-24T03:57:32.452Z,12.19
2023-04-24T04:00:10.787Z,12.17
2023-04-24T04:02:42.767Z,12.13
2023-04-24T04:05:12.320Z,12.10
2023-04-24T04:07:41.750Z,12.07
2023-04-24T04:10:10.337Z,12.08
2023-04-24T04:12:39.085Z,12.04
2023-04-24T04:15:08.184Z,11.94
2023-04-24T04:17:36.578Z,11.93
2023-04-24T04:20:10.966Z,11.93
2023-04-24T04:22:44.299Z,11.95
2023-04-24T04:25:20.377Z,11.98
2023-04-24T04:27:48.789Z,12.00
2023-04-24T04:30:16.899Z,12.02
2023-04-24T04:32:57.741Z,11.98
2023-04-24T04:35:26.955Z,11.98
2023-04-24T04:37:57.082Z,12.02
2023-04-24T04:41:03.976Z,12.02
2023-04-24T04:43:35.213Z,12.02
2023-04-24T04:46:04.488Z,12.03
2023-04-24T04:48:58.721Z,12.10
2023-04-24T04:51:27.334Z,12.17
2023-04-24T04:53:56.717Z,12.18
2023-04-24T04:56:25.127Z,12.21
2023-04-24T04:58:53.120Z,12.27
2023-04-24T05:01:21.325Z,12.33
2023-04-24T05:03:51.313Z,12.39
2023-04-24T05:06:19.434Z,12.45
2023-04-24T05:08:48.172Z,12.47
2023-04-24T05:11:28.637Z,12.51
2023-04-24T05:13:58.433Z,12.50
2023-04-24T05:16:34.804Z,12.48
2023-04-24T05:19:03.171Z,12.48
2023-04-24T05:21:35.984Z,12.48
2023-04-24T05:24:04.326Z,12.53
2023-04-24T05:27:03.298Z,12.60
2023-04-24T05:29:36.732Z,12.63
2023-04-24T05:32:06.350Z,12.64
2023-04-24T05:34:34.314Z,12.61
2023-04-24T05:37:02.237Z,12.57
2023-04-24T05:39:30.241Z,12.56
2023-04-24T05:41:59.661Z,12.56
2023-04-24T05:44:29.164Z,12.57
2023-04-24T05:46:57.808Z,12.61
2023-04-24T05:49:26.330Z,12.63
2023-04-24T05:51:54.658Z,12.59
2023-04-24T05:54:23.496Z,12.61
2023-04-24T05:56:51.442Z,12.67
2023-04-24T05:59:30.935Z,12.69
2023-04-24T06:02:00.348Z,12.70
2023-04-24T06:04:28.689Z,12.72
2023-04-24T06:06:57.430Z,12.75
2023-04-24T06:09:26.237Z,12.72
2023-04-24T06:11:54.514Z,12.73
2023-04-24T06:14:26.501Z,12.74
2023-04-24T06:17:15.799Z,12.70
2023-04-24T06:19:44.175Z,12.68
2023-04-24T06:22:12.436Z,12.73
2023-04-24T06:24:42.157Z,12.82
2023-04-24T06:27:10.103Z,12.91
2023-04-24T06:29:38.466Z,13.00
2023-04-24T06:32:06.543Z,13.08
2023-04-24T06:34:36.579Z,13.16
2023-04-24T06:37:04.592Z,13.22
2023-04-24T06:39:32.524Z,13.29
2023-04-24T06:42:01.565Z,13.35
2023-04-24T06:44:29.733Z,13.40
2023-04-24T06:46:58.341Z,13.43
2023-04-24T06:49:26.291Z,13.44
2023-04-24T06:51:55.830Z,13.48
2023-04-24T06:54:23.803Z,13.50
2023-04-24T06:56:53.360Z,13.56
2023-04-24T06:59:21.762Z,13.64
2023-04-24T07:01:49.686Z,13.67
2023-04-24T07:04:17.985Z,13.64
2023-04-24T07:06:46.895Z,13.60
2023-04-24T07:09:17.158Z,13.58
2023-04-24T07:11:45.745Z,13.54
2023-04-24T07:14:13.760Z,13.53
2023-04-24T07:16:42.740Z,13.59
2023-04-24T07:19:12.016Z,13.65
2023-04-24T07:21:40.318Z,13.63
2023-04-24T07:24:10.371Z,13.62
2023-04-24T07:26:39.843Z,13.73
2023-04-24T07:29:07.777Z,13.81
2023-04-24T07:31:36.157Z,13.93
2023-04-24T07:34:04.191Z,14.07
2023-04-24T07:36:33.403Z,14.26
2023-04-24T07:39:01.403Z,14.51
2023-04-24T07:41:29.874Z,14.74
2023-04-24T07:43:59.446Z,14.93
2023-04-24T07:46:30.947Z,15.05
2023-04-24T07:49:13.695Z,15.12
2023-04-24T07:51:42.617Z,15.12
2023-04-24T07:54:10.986Z,15.10
2023-04-24T07:56:40.466Z,15.11
2023-04-24T07:59:10.817Z,15.11
2023-04-24T08:01:39.148Z,15.18
2023-04-24T08:04:07.666Z,15.31
2023-04-24T08:06:36.252Z,15.41
2023-04-24T08:09:04.290Z,15.54
2023-04-24T08:11:33.095Z,15.63
2023-04-24T08:14:01.078Z,15.73
2023-04-24T08:16:38.222Z,15.80
2023-04-24T08:19:06.325Z,15.84
2023-04-24T08:21:34.275Z,15.93
2023-04-24T08:24:06.195Z,16.02
2023-04-24T08:26:34.745Z,16.09
2023-04-24T08:29:02.847Z,16.11
2023-04-24T08:31:32.236Z,16.14
2023-04-24T08:34:01.001Z,16.15
2023-04-24T08:36:43.615Z,16.21
2023-04-24T08:39:16.634Z,16.27
2023-04-24T08:41:46.570Z,16.35
2023-04-24T08:44:16.697Z,16.34
2023-04-24T08:46:48.932Z,16.31
2023-04-24T08:49:17.640Z,16.38
2023-04-24T08:51:45.905Z,16.45
2023-04-24T08:54:14.986Z,16.48
2023-04-24T08:56:42.906Z,16.45
2023-04-24T08:59:11.340Z,16.49
2023-04-24T09:01:40.753Z,16.51
2023-04-24T09:04:12.165Z,16.47
2023-04-24T09:06:40.603Z,16.49
2023-04-24T09:09:08.512Z,16.55
2023-04-24T09:11:36.453Z,16.65
2023-04-24T09:14:04.420Z,16.84
2023-04-24T09:16:36.526Z,16.98
2023-04-24T09:19:05.098Z,17.11
2023-04-24T09:21:35.154Z,17.15
2023-04-24T09:24:03.920Z,17.27
2023-04-24T09:26:33.927Z,17.22
2023-04-24T09:29:02.156Z,17.14
2023-04-24T09:31:30.765Z,17.34
2023-04-24T09:34:01.787Z,17.33
2023-04-24T09:36:31.599Z,17.50
2023-04-24T09:39:01.624Z,17.62
2023-04-24T09:41:30.070Z,17.49
2023-04-24T09:43:58.222Z,17.51
2023-04-24T09:46:31.950Z,17.51
2023-04-24T09:49:00.016Z,17.39
2023-04-24T09:51:36.489Z,17.39
2023-04-24T09:54:07.120Z,17.54
2023-04-24T09:56:35.823Z,17.64
2023-04-24T09:59:09.104Z,17.65
2023-04-24T10:01:39.210Z,17.58
2023-04-24T10:04:14.564Z,17.43
2023-04-24T10:06:44.401Z,17.42
2023-04-24T10:09:14.851Z,17.34
2023-04-24T10:11:45.128Z,17.30
2023-04-24T10:14:14.860Z,17.33
2023-04-24T10:16:43.032Z,17.33
2023-04-24T10:19:11.893Z,17.09
2023-04-24T10:21:43.386Z,17.00
2023-04-24T10:24:11.681Z,16.90
2023-04-24T10:26:41.576Z,16.81
2023-04-24T10:29:11.004Z,16.72
2023-04-24T10:31:39.148Z,16.63
2023-04-24T10:34:07.478Z,16.42
2023-04-24T10:36:35.643Z,16.20
2023-04-24T10:39:07.923Z,15.69
2023-04-24T10:41:36.738Z,15.07
2023-04-24T10:44:11.423Z,14.51
2023-04-24T10:46:42.393Z,14.00
2023-04-24T10:49:10.775Z,13.72
2023-04-24T10:51:54.334Z,13.55
2023-04-24T10:54:29.130Z,13.46
2023-04-24T10:57:33.816Z,13.17
2023-04-24T11:00:21.878Z,13.00
2023-04-24T11:02:54.028Z,12.88
2023-04-24T11:05:22.746Z,12.80
2023-04-24T11:08:15.103Z,12.82
2023-04-24T11:10:45.645Z,12.78
2023-04-24T11:13:17.018Z,12.78
2023-04-24T11:15:46.500Z,12.73
2023-04-24T11:18:17.732Z,12.74
2023-04-24T11:20:47.064Z,12.78
2023-04-24T11:23:15.172Z,12.81
2023-04-24T11:25:45.145Z,12.86
2023-04-24T11:28:18.527Z,12.85
2023-04-24T11:30:48.264Z,12.84
2023-04-24T11:33:16.423Z,12.82
2023-04-24T11:35:44.449Z,12.84
2023-04-24T11:38:24.035Z,12.85
2023-04-24T11:40:54.065Z,12.95
2023-04-24T11:43:22.167Z,13.10
2023-04-24T11:45:51.953Z,13.13
2023-04-24T11:48:23.693Z,13.16
2023-04-24T11:50:52.659Z,13.21
2023-04-24T11:53:21.654Z,13.20
2023-04-24T11:55:51.088Z,13.23
2023-04-24T11:58:19.231Z,13.23
2023-04-24T12:00:47.711Z,13.26
2023-04-24T12:03:17.399Z,13.33
2023-04-24T12:05:46.908Z,13.41
2023-04-24T12:08:17.038Z,13.45
2023-04-24T12:10:46.951Z,13.47
2023-04-24T12:13:15.353Z,13.51
2023-04-24T12:15:43.621Z,13.60
2023-04-24T12:18:14.247Z,13.69
2023-04-24T12:20:43.770Z,13.89
2023-04-24T12:23:11.740Z,14.04
2023-04-24T12:25:41.927Z,14.16
2023-04-24T12:28:14.088Z,14.18
2023-04-24T12:30:45.651Z,14.16
2023-04-24T12:33:14.627Z,14.13
2023-04-24T12:35:44.248Z,14.20
2023-04-24T12:38:13.876Z,14.21
2023-04-24T12:40:42.389Z,14.21
2023-04-24T12:43:16.152Z,14.29
2023-04-24T12:45:46.427Z,14.35
2023-04-24T12:48:15.198Z,14.47
2023-04-24T12:50:46.440Z,14.55
2023-04-24T12:53:16.404Z,14.66
2023-04-24T12:55:45.520Z,14.69
2023-04-24T12:58:18.966Z,14.71
2023-04-24T13:00:47.772Z,14.68
2023-04-24T13:03:16.815Z,14.61
2023-04-24T13:05:46.475Z,14.47
2023-04-24T13:08:15.113Z,14.45
2023-04-24T13:10:44.726Z,14.40
2023-04-24T13:13:15.437Z,14.32
2023-04-24T13:15:44.020Z,14.24
2023-04-24T13:18:12.837Z,14.25
2023-04-24T13:20:42.107Z,14.23
2023-04-24T13:23:11.463Z,14.19
2023-04-24T13:25:40.293Z,14.19
2023-04-24T13:28:08.321Z,14.17
2023-04-24T13:30:37.679Z,14.15
2023-04-24T13:33:06.223Z,14.13
2023-04-24T13:35:34.428Z,14.06
2023-04-24T13:38:07.386Z,14.09
2023-04-24T13:40:39.430Z,14.10
2023-04-24T13:43:08.672Z,14.21
2023-04-24T13:45:36.915Z,14.19
2023-04-24T13:48:05.242Z,14.24
2023-04-24T13:50:33.736Z,14.25
2023-04-24T13:53:03.013Z,14.19
2023-04-24T13:55:32.004Z,14.22
2023-04-24T13:58:02.368Z,14.25
2023-04-24T14:00:30.507Z,14.31
2023-04-24T14:02:58.603Z,14.35
2023-04-24T14:05:26.719Z,14.38
2023-04-24T14:07:54.930Z,14.42
2023-04-24T14:10:23.180Z,14.39
2023-04-24T14:12:51.092Z,14.33
2023-04-24T14:15:20.623Z,14.33
2023-04-24T14:17:49.661Z,14.38
2023-04-24T14:20:18.032Z,14.48
2023-04-24T14:22:46.705Z,14.65
2023-04-24T14:25:16.369Z,14.77
2023-04-24T14:27:44.521Z,14.89
2023-04-24T14:30:13.729Z,15.00
2023-04-24T14:32:44.375Z,15.05
2023-04-24T14:35:13.109Z,15.11
2023-04-24T14:37:42.283Z,15.19
2023-04-24T14:40:26.681Z,15.30
2023-04-24T14:42:59.326Z,15.39
2023-04-24T14:45:27.593Z,15.46
2023-04-24T14:47:57.654Z,15.54
2023-04-24T14:50:28.957Z,15.49
2023-04-24T14:52:59.474Z,15.44
2023-04-24T14:55:27.959Z,15.32
2023-04-24T14:57:55.936Z,15.30
2023-04-24T15:00:25.062Z,15.29
2023-04-24T15:02:56.491Z,15.26
2023-04-24T15:05:25.834Z,15.30
2023-04-24T15:07:54.663Z,15.23
2023-04-24T15:10:24.015Z,15.35
2023-04-24T15:12:52.100Z,15.33
2023-04-24T15:15:20.252Z,15.31
2023-04-24T15:17:50.816Z,15.29
2023-04-24T15:20:20.305Z,15.31
2023-04-24T15:22:49.416Z,15.33
2023-04-24T15:25:17.948Z,15.39
2023-04-24T15:27:47.344Z,15.45
2023-04-24T15:30:15.644Z,15.54
2023-04-24T15:32:43.756Z,15.61
2023-04-24T15:35:14.143Z,15.68
2023-04-24T15:37:43.965Z,15.80
2023-04-24T15:40:14.397Z,15.94
2023-04-24T15:42:42.928Z,16.02
2023-04-24T15:45:15.811Z,16.02
2023-04-24T15:47:44.285Z,16.01
2023-04-24T15:50:14.337Z,16.04
2023-04-24T15:52:44.696Z,16.35
2023-04-24T15:55:12.819Z,16.92
2023-04-24T15:57:40.964Z,17.13
2023-04-24T16:00:11.472Z,17.42
2023-04-24T16:02:39.636Z,17.64
2023-04-24T16:05:09.110Z,18.09
2023-04-24T16:07:38.574Z,18.39
2023-04-24T16:10:08.977Z,18.36
2023-04-24T16:12:37.173Z,18.23
2023-04-24T16:15:07.596Z,17.90
2023-04-24T16:17:38.159Z,17.53
2023-04-24T16:20:08.775Z,17.16
2023-04-24T16:22:36.904Z,17.00
2023-04-24T16:25:08.409Z,16.99
2023-04-24T16:27:37.511Z,17.03
2023-04-24T16:30:07.909Z,17.04
2023-04-24T16:32:36.234Z,17.00
2023-04-24T16:35:04.187Z,17.23
2023-04-24T16:37:32.318Z,17.21
2023-04-24T16:40:00.266Z,17.20
2023-04-24T16:42:29.687Z,17.36
2023-04-24T16:44:57.717Z,18.07
2023-04-24T16:47:25.819Z,18.37
2023-04-24T16:49:54.135Z,18.73
2023-04-24T16:52:22.147Z,18.68
2023-04-24T16:54:50.153Z,18.50
2023-04-24T16:57:18.052Z,18.40
2023-04-24T16:59:47.993Z,18.62
2023-04-24T17:02:16.016Z,18.58
2023-04-24T17:04:44.026Z,18.95
2023-04-24T17:07:12.337Z,19.01
2023-04-24T17:09:40.324Z,18.90
2023-04-24T17:12:08.418Z,18.63
2023-04-24T17:14:36.434Z,18.38
2023-04-24T17:17:05.892Z,18.01
2023-04-24T17:19:35.709Z,17.58
2023-04-24T17:22:06.095Z,17.25
2023-04-24T17:24:34.528Z,17.13
2023-04-24T17:27:12.111Z,17.44
2023-04-24T17:29:43.134Z,17.89
2023-04-24T17:32:19.377Z,17.86
2023-04-24T17:34:49.146Z,17.52
2023-04-24T17:37:19.857Z,17.15
2023-04-24T17:39:48.570Z,16.84
2023-04-24T17:42:16.522Z,16.65
2023-04-24T17:44:45.444Z,16.47
2023-04-24T17:47:14.834Z,16.31
2023-04-24T17:49:43.618Z,16.11
2023-04-24T17:52:12.818Z,15.95
2023-04-24T17:54:40.977Z,15.81
2023-04-24T17:57:08.956Z,15.62
2023-04-24T17:59:37.029Z,15.45
2023-04-24T18:02:04.941Z,15.37
2023-04-24T18:04:34.574Z,15.42
2023-04-24T18:07:02.968Z,15.69
2023-04-24T18:09:30.941Z,15.80
2023-04-24T18:11:59.107Z,15.90
2023-04-24T18:14:28.403Z,15.88
2023-04-24T18:16:59.514Z,15.77
2023-04-24T18:19:27.619Z,15.71
2023-04-24T18:21:57.401Z,15.63
2023-04-24T18:24:25.741Z,15.63
2023-04-24T18:26:54.193Z,15.62
2023-04-24T18:29:22.267Z,15.58
2023-04-24T18:31:53.722Z,15.57
2023-04-24T18:34:21.786Z,15.49
2023-04-24T18:36:49.985Z,15.34
2023-04-24T18:39:23.008Z,15.16
2023-04-24T18:41:52.187Z,15.03
2023-04-24T18:44:20.151Z,14.90
2023-04-24T18:46:48.295Z,14.77
2023-04-24T18:49:16.215Z,14.68
2023-04-24T18:51:53.687Z,14.60
2023-04-24T18:54:23.946Z,14.54
2023-04-24T18:56:52.556Z,14.53
2023-04-24T18:59:20.830Z,14.54
2023-04-24T19:01:48.997Z,14.56
2023-04-24T19:04:18.170Z,14.51
2023-04-24T19:06:46.182Z,14.50
2023-04-24T19:09:14.206Z,14.53
2023-04-24T19:11:44.866Z,14.51
2023-04-24T19:14:13.664Z,14.49
2023-04-24T19:16:41.775Z,14.43
2023-04-24T19:19:09.990Z,14.40
2023-04-24T19:21:38.025Z,14.33
2023-04-24T19:24:06.312Z,14.26
2023-04-24T19:26:34.400Z,14.21
2023-04-24T19:29:04.748Z,14.14
2023-04-24T19:31:32.990Z,14.07
2023-04-24T19:34:03.264Z,14.01
2023-04-24T19:36:31.339Z,14.00
2023-04-24T19:38:59.384Z,13.98
2023-04-24T19:41:30.744Z,13.91
2023-04-24T19:43:58.734Z,13.91
2023-04-24T19:46:28.446Z,13.95
2023-04-24T19:48:56.651Z,13.97
2023-04-24T19:51:24.651Z,14.00
2023-04-24T19:53:55.227Z,14.00
2023-04-24T19:56:23.242Z,14.01
2023-04-24T19:58:51.329Z,14.02
2023-04-24T20:01:19.751Z,14.02
2023-04-24T20:03:49.476Z,14.03
2023-04-24T20:06:17.749Z,13.96
2023-04-24T20:08:45.839Z,13.90
2023-04-24T20:11:15.088Z,13.82
2023-04-24T20:13:43.178Z,13.75
2023-04-24T20:16:11.544Z,13.69
2023-04-24T20:18:39.847Z,13.74
2023-04-24T20:21:09.508Z,13.79
2023-04-24T20:23:37.493Z,13.82
2023-04-24T20:26:05.421Z,13.87
2023-04-24T20:28:33.497Z,13.89
2023-04-24T20:31:01.475Z,13.94
2023-04-24T20:33:30.704Z,13.97
2023-04-24T20:35:58.724Z,13.99
2023-04-24T20:38:28.816Z,13.95
2023-04-24T20:40:58.205Z,13.95
2023-04-24T20:43:28.894Z,13.93
2023-04-24T20:45:57.910Z,13.86
2023-04-24T20:48:28.133Z,13.84
2023-04-24T20:50:56.319Z,13.81
2023-04-24T20:53:24.317Z,13.83
2023-04-24T20:55:53.889Z,13.84
2023-04-24T20:58:22.279Z,13.88
2023-04-24T21:00:50.456Z,13.94
2023-04-24T21:03:18.866Z,13.89
2023-04-24T21:05:47.053Z,13.85
2023-04-24T21:08:15.166Z,13.79
2023-04-24T21:10:43.210Z,13.77
2023-04-24T21:13:15.182Z,13.74
2023-04-24T21:15:43.114Z,13.67
2023-04-24T21:18:12.645Z,13.62
2023-04-24T21:20:40.664Z,13.63
2023-04-24T21:23:09.045Z,13.64
2023-04-24T21:25:37.269Z,13.73
2023-04-24T21:28:05.724Z,13.75
2023-04-24T21:30:35.274Z,13.73
2023-04-24T21:33:03.529Z,13.68
2023-04-24T21:35:31.991Z,13.62
2023-04-24T21:37:59.986Z,13.54
2023-04-24T21:40:29.435Z,13.48
2023-04-24T21:42:57.459Z,13.44
2023-04-24T21:45:25.408Z,13.42
2023-04-24T21:47:54.970Z,13.44
2023-04-24T21:50:23.012Z,13.50
2023-04-24T21:52:51.011Z,13.59
2023-04-24T21:55:19.189Z,13.68
2023-04-24T21:57:47.153Z,13.75
2023-04-24T22:00:15.454Z,13.79
2023-04-24T22:02:43.865Z,13.83
2023-04-24T22:05:15.853Z,13.85
2023-04-24T22:07:46.695Z,13.85
2023-04-24T22:10:16.592Z,13.74
2023-04-24T22:12:44.838Z,13.62
2023-04-24T22:15:12.982Z,13.55
2023-04-24T22:17:40.940Z,13.52
2023-04-24T22:20:09.568Z,13.47
2023-04-24T22:22:39.705Z,13.42
2023-04-24T22:25:09.204Z,13.39
2023-04-24T22:27:37.339Z,13.34
2023-04-24T22:30:06.168Z,13.37
2023-04-24T22:32:34.495Z,13.37
2023-04-24T22:35:02.479Z,13.33
2023-04-24T22:37:30.780Z,13.34
2023-04-24T22:40:01.410Z,13.37
2023-04-24T22:42:30.133Z,13.37
2023-04-24T22:44:58.097Z,13.36
2023-04-24T22:47:26.163Z,13.36
2023-04-24T22:49:54.247Z,13.34
2023-04-24T22:52:22.518Z,13.34
2023-04-24T22:54:50.748Z,13.40
2023-04-24T22:57:20.164Z,13.45
2023-04-24T22:59:48.314Z,13.50
2023-04-24T23:02:16.889Z,13.49
2023-04-24T23:04:45.031Z,13.49
2023-04-24T23:07:13.000Z,13.44
2023-04-24T23:09:40.957Z,13.40
2023-04-24T23:12:08.890Z,13.34
2023-04-24T23:14:38.293Z,13.26
2023-04-24T23:17:06.360Z,13.20
2023-04-24T23:19:34.466Z,13.15
2023-04-24T23:22:02.543Z,13.11
2023-04-24T23:24:30.828Z,13.08
2023-04-24T23:26:58.905Z,13.06
2023-04-24T23:29:26.930Z,13.02
2023-04-24T23:31:56.953Z,13.00
2023-04-24T23:34:25.238Z,12.96
2023-04-24T23:36:53.351Z,12.99
2023-04-24T23:39:22.932Z,13.01
2023-04-24T23:41:53.577Z,12.99
2023-04-24T23:44:21.612Z,12.98
2023-04-24T23:46:49.919Z,12.95
2023-04-24T23:49:19.427Z,12.94
2023-04-24T23:51:47.922Z,12.88
2023-04-24T23:54:15.862Z,12.87
2023-04-24T23:56:44.629Z,12.84
2023-04-24T23:59:12.535Z,12.79
